Time;durP1;ratioP1;P1;durP2;ratioP2;P2;SDS_P1;SDS_P2;PMS_P1;PMS_P2;Temp;Humidity;BMP_temperature;BMP_pressure;BME280_temperature;BME280_humidity;BME280_pressure;Samples;Min_cycle;Max_cycle;Signal;HPM_P1;HPM_P2
2021/07/30 00:02:08;;;;;;;0.10;0.10;;;21.20;67.70;;;;;;4207492;28;20052;-53
2021/07/30 00:04:31;;;;;;;0.00;0.00;;;21.20;67.70;;;;;;4207627;28;20405;-48
2021/07/30 00:06:54;;;;;;;0.00;0.00;;;21.10;67.70;;;;;;4200827;28;20052;-53
2021/07/30 00:09:16;;;;;;;0.00;0.00;;;21.10;67.70;;;;;;4191160;28;20054;-47
2021/07/30 00:11:38;;;;;;;0.00;0.00;;;21.10;67.80;;;;;;4190736;28;20052;-47
2021/07/30 00:14:00;;;;;;;0.10;0.10;;;21.10;67.80;;;;;;4191228;28;20084;-53
2021/07/30 00:16:22;;;;;;;0.38;0.38;;;21.10;67.90;;;;;;4190989;28;20045;-48
2021/07/30 00:18:44;;;;;;;0.05;0.05;;;21.10;67.90;;;;;;4207830;28;20055;-47
2021/07/30 00:21:06;;;;;;;0.00;0.00;;;21.10;67.90;;;;;;4207610;28;20043;-50
2021/07/30 00:23:29;;;;;;;0.00;0.00;;;21.10;67.90;;;;;;4207599;28;20059;-47
2021/07/30 00:25:51;;;;;;;0.00;0.00;;;21.10;68.00;;;;;;4191614;28;20483;-54
2021/07/30 00:28:13;;;;;;;0.10;0.10;;;21.10;68.10;;;;;;4190878;28;20515;-51
2021/07/30 00:30:35;;;;;;;0.05;0.05;;;21.10;68.00;;;;;;4190932;28;20506;-48
2021/07/30 00:32:58;;;;;;;0.55;0.55;;;21.10;68.00;;;;;;4190883;28;20037;-49
2021/07/30 00:35:20;;;;;;;0.50;0.50;;;21.10;68.10;;;;;;4190688;28;20040;-47
2021/07/30 00:37:42;;;;;;;0.00;0.00;;;21.10;68.10;;;;;;4190533;28;20380;-48
2021/07/30 00:40:07;;;;;;;0.00;0.00;;;21.10;68.10;;;;;;4204038;28;20062;-48
2021/07/30 00:42:31;;;;;;;0.00;0.00;;;21.10;68.10;;;;;;4207595;28;20472;-53
2021/07/30 00:44:53;;;;;;;0.00;0.00;;;21.10;68.20;;;;;;4207382;28;20059;-50
2021/07/30 00:47:16;;;;;;;0.00;0.00;;;21.10;68.20;;;;;;4207547;28;20044;-48
2021/07/30 00:49:38;;;;;;;0.30;0.30;;;21.10;68.20;;;;;;4207529;28;20054;-48
2021/07/30 00:52:05;;;;;;;0.00;0.00;;;21.10;68.30;;;;;;4206759;28;20063;-47
2021/07/30 00:54:27;;;;;;;0.00;0.00;;;21.10;68.30;;;;;;4207426;28;20954;-51
2021/07/30 00:56:52;;;;;;;0.00;0.00;;;21.10;68.30;;;;;;4207545;28;20052;-49
2021/07/30 00:59:14;;;;;;;0.00;0.00;;;21.10;68.30;;;;;;4207320;28;20105;-50
2021/07/30 01:01:37;;;;;;;0.10;0.10;;;21.10;68.30;;;;;;4207100;28;20044;-48
2021/07/30 01:04:01;;;;;;;0.10;0.10;;;21.10;68.40;;;;;;4204550;28;20050;-47
2021/07/30 01:06:23;;;;;;;0.30;0.30;;;21.00;68.40;;;;;;4190542;28;20054;-47
2021/07/30 01:08:45;;;;;;;0.20;0.20;;;21.00;68.30;;;;;;4191761;28;20132;-49
2021/07/30 01:11:07;;;;;;;0.20;0.20;;;21.00;68.40;;;;;;4207164;28;20055;-49
2021/07/30 01:13:31;;;;;;;0.00;0.00;;;21.00;68.50;;;;;;4207665;28;20072;-49
2021/07/30 01:15:53;;;;;;;0.00;0.00;;;21.00;68.50;;;;;;4210152;28;20498;-47
2021/07/30 01:18:15;;;;;;;0.00;0.00;;;21.00;68.50;;;;;;4210105;28;20051;-50
2021/07/30 01:20:42;;;;;;;0.10;0.10;;;21.00;68.50;;;;;;4209590;28;20070;-50
2021/07/30 01:23:08;;;;;;;0.00;0.00;;;21.00;68.60;;;;;;4190088;28;20566;-47
2021/07/30 01:25:30;;;;;;;0.00;0.00;;;21.00;68.60;;;;;;4192931;28;20052;-55
2021/07/30 01:27:53;;;;;;;0.00;0.00;;;21.00;68.60;;;;;;4193217;28;20056;-48
2021/07/30 01:30:16;;;;;;;17.80;1.65;;;21.00;68.60;;;;;;4193515;28;20491;-52
2021/07/30 01:32:37;;;;;;;0.00;0.00;;;21.00;68.70;;;;;;4193777;28;20052;-51
2021/07/30 01:35:02;;;;;;;0.00;0.00;;;21.00;68.70;;;;;;4200989;28;20452;-47
2021/07/30 01:37:26;;;;;;;0.00;0.00;;;21.00;68.70;;;;;;4209269;28;20044;-51
2021/07/30 01:39:50;;;;;;;0.00;0.00;;;21.00;68.70;;;;;;4208920;28;20406;-49
2021/07/30 01:42:12;;;;;;;0.00;0.00;;;21.00;68.70;;;;;;4209773;28;20058;-51
2021/07/30 01:44:35;;;;;;;0.17;0.17;;;20.90;68.70;;;;;;4209979;28;20418;-53
2021/07/30 01:46:57;;;;;;;0.52;0.52;;;20.90;68.80;;;;;;4209619;28;20054;-47
2021/07/30 01:49:19;;;;;;;0.20;0.20;;;20.90;68.80;;;;;;4209496;28;20414;-51
2021/07/30 01:51:41;;;;;;;0.17;0.17;;;20.90;68.80;;;;;;4199654;28;20056;-49
2021/07/30 01:54:03;;;;;;;0.05;0.05;;;20.90;68.80;;;;;;4192986;28;20457;-50
2021/07/30 01:56:27;;;;;;;0.00;0.00;;;20.90;68.80;;;;;;4192971;28;20045;-51
2021/07/30 01:58:49;;;;;;;0.00;0.00;;;20.90;68.90;;;;;;4192727;28;20052;-54
2021/07/30 02:01:11;;;;;;;0.00;0.00;;;20.90;69.00;;;;;;4192636;28;20102;-52
2021/07/30 02:03:33;;;;;;;0.00;0.00;;;20.90;69.00;;;;;;4209674;28;20078;-49
2021/07/30 02:05:55;;;;;;;0.05;0.05;;;20.90;69.10;;;;;;4206132;28;20080;-48
2021/07/30 02:08:17;;;;;;;0.00;0.00;;;20.90;69.00;;;;;;4192837;28;20067;-50
2021/07/30 02:10:40;;;;;;;0.03;0.03;;;20.90;69.10;;;;;;4192596;28;20048;-47
2021/07/30 02:15:43;;;;;;;0.25;0.25;;;20.90;69.10;;;;;;4192328;28;20045;-48
2021/07/30 02:18:04;;;;;;;5.10;1.48;;;20.90;69.10;;;;;;4192277;28;20048;-51
2021/07/30 02:20:26;;;;;;;0.00;0.00;;;20.90;69.10;;;;;;4196280;28;20588;-50
2021/07/30 02:22:48;;;;;;;0.22;0.22;;;20.90;69.10;;;;;;4192586;28;20052;-49
2021/07/30 02:25:11;;;;;;;0.25;0.25;;;20.90;69.10;;;;;;4192229;28;20127;-48
2021/07/30 02:27:33;;;;;;;0.00;0.00;;;20.80;69.00;;;;;;4192465;28;20059;-50
2021/07/30 02:29:57;;;;;;;0.10;0.10;;;20.80;69.10;;;;;;4192424;28;20053;-49
2021/07/30 02:32:19;;;;;;;0.00;0.00;;;20.80;69.10;;;;;;4192334;28;20467;-47
2021/07/30 02:34:41;;;;;;;0.10;0.10;;;20.80;69.10;;;;;;4192224;28;20074;-49
2021/07/30 02:37:03;;;;;;;0.08;0.08;;;20.90;69.10;;;;;;4204486;28;20134;-49
2021/07/30 02:39:25;;;;;;;0.00;0.00;;;20.80;69.10;;;;;;4208662;28;20048;-49
2021/07/30 02:41:48;;;;;;;0.30;0.30;;;20.80;69.20;;;;;;4208793;28;20418;-50
2021/07/30 02:44:10;;;;;;;0.00;0.00;;;20.80;69.30;;;;;;4208525;28;20090;-48
2021/07/30 02:46:33;;;;;;;0.00;0.00;;;20.80;69.30;;;;;;4208383;28;20044;-52
2021/07/30 02:48:56;;;;;;;0.10;0.10;;;20.80;69.30;;;;;;4208704;28;20558;-50
2021/07/30 02:51:18;;;;;;;0.00;0.00;;;20.80;69.30;;;;;;4208502;28;20062;-51
2021/07/30 02:53:41;;;;;;;0.00;0.00;;;20.80;69.40;;;;;;4208723;28;20474;-47
2021/07/30 02:56:03;;;;;;;0.00;0.00;;;20.80;69.40;;;;;;4208733;28;20075;-49
2021/07/30 02:58:25;;;;;;;0.00;0.00;;;20.80;69.40;;;;;;4209090;28;20055;-49
2021/07/30 03:00:47;;;;;;;0.00;0.00;;;20.80;69.50;;;;;;4208740;28;20051;-47
2021/07/30 03:03:11;;;;;;;0.00;0.00;;;20.80;69.60;;;;;;4208756;28;20055;-49
2021/07/30 03:05:33;;;;;;;0.00;0.00;;;20.80;69.60;;;;;;4208619;28;20496;-50
2021/07/30 03:07:58;;;;;;;0.05;0.05;;;20.70;69.70;;;;;;4207130;28;20143;-48
2021/07/30 03:10:20;;;;;;;0.00;0.00;;;20.80;69.70;;;;;;4208574;28;20764;-48
2021/07/30 03:12:42;;;;;;;0.77;0.77;;;20.70;69.70;;;;;;4207963;28;20056;-52
2021/07/30 03:15:05;;;;;;;0.00;0.00;;;20.70;69.60;;;;;;4207175;28;20171;-49
2021/07/30 03:17:27;;;;;;;0.00;0.00;;;20.70;69.70;;;;;;4207944;28;20405;-49
2021/07/30 03:19:50;;;;;;;0.03;0.03;;;20.70;69.80;;;;;;4208387;28;20752;-51
2021/07/30 03:22:12;;;;;;;0.00;0.00;;;20.70;69.80;;;;;;4207815;28;20646;-50
2021/07/30 03:24:34;;;;;;;0.10;0.10;;;20.70;69.80;;;;;;4208327;28;20395;-47
2021/07/30 03:26:56;;;;;;;0.30;0.30;;;20.70;69.80;;;;;;4208196;28;20098;-50
2021/07/30 03:29:20;;;;;;;0.22;0.22;;;20.70;70.00;;;;;;4208189;28;20562;-52
2021/07/30 03:31:47;;;;;;;0.00;0.00;;;20.70;70.00;;;;;;4208129;28;20062;-51
2021/07/30 03:34:09;;;;;;;0.17;0.17;;;20.70;70.00;;;;;;4208308;28;21811;-49
2021/07/30 03:36:33;;;;;;;0.00;0.00;;;20.70;70.00;;;;;;4206906;28;20486;-50
2021/07/30 03:38:55;;;;;;;1.55;0.52;;;20.70;70.00;;;;;;4207598;28;20101;-49
2021/07/30 03:41:17;;;;;;;0.00;0.00;;;20.70;70.00;;;;;;4207661;28;20054;-48
2021/07/30 03:43:39;;;;;;;0.00;0.00;;;20.70;70.00;;;;;;4207960;28;20508;-48
2021/07/30 03:46:01;;;;;;;0.57;0.57;;;20.60;69.90;;;;;;4206324;28;20044;-52
2021/07/30 03:48:23;;;;;;;0.00;0.00;;;20.60;70.00;;;;;;4207912;28;20063;-52
2021/07/30 03:50:46;;;;;;;0.00;0.00;;;20.60;70.00;;;;;;4206492;28;20079;-48
2021/07/30 03:53:09;;;;;;;0.03;0.03;;;20.60;70.10;;;;;;4208046;28;20070;-50
2021/07/30 03:55:32;;;;;;;0.05;0.05;;;20.60;70.10;;;;;;4207555;28;20058;-51
2021/07/30 03:57:54;;;;;;;0.65;0.63;;;20.60;70.10;;;;;;4207008;28;20060;-54
2021/07/30 04:00:16;;;;;;;3.03;1.25;;;20.60;70.10;;;;;;4208161;28;20044;-53
2021/07/30 04:02:38;;;;;;;0.00;0.00;;;20.60;70.10;;;;;;4207904;28;20495;-54
2021/07/30 04:05:01;;;;;;;0.00;0.00;;;20.60;70.20;;;;;;4207710;28;20051;-48
2021/07/30 04:07:23;;;;;;;0.00;0.00;;;20.60;70.20;;;;;;4194506;28;20048;-48
2021/07/30 04:09:47;;;;;;;0.10;0.10;;;20.60;71.10;;;;;;4207737;28;20044;-50
2021/07/30 04:12:09;;;;;;;0.05;0.05;;;20.60;70.30;;;;;;4207801;28;20048;-51
2021/07/30 04:14:31;;;;;;;0.47;0.47;;;20.60;70.30;;;;;;4207700;28;20040;-50
2021/07/30 04:16:53;;;;;;;0.03;0.03;;;20.50;70.30;;;;;;4195388;28;20098;-49
2021/07/30 04:19:16;;;;;;;0.25;0.25;;;20.60;70.30;;;;;;4190884;28;20080;-49
2021/07/30 04:21:38;;;;;;;2.03;1.92;;;20.50;70.30;;;;;;4190906;28;20135;-48
2021/07/30 04:24:01;;;;;;;0.63;0.63;;;20.60;70.40;;;;;;4190970;28;20128;-51
2021/07/30 04:26:25;;;;;;;0.10;0.10;;;20.60;70.40;;;;;;4205738;28;20052;-48
2021/07/30 04:28:47;;;;;;;0.00;0.00;;;20.60;70.40;;;;;;4207398;28;20467;-49
2021/07/30 04:31:09;;;;;;;0.00;0.00;;;20.50;70.40;;;;;;4207572;28;20486;-47
2021/07/30 04:33:31;;;;;;;0.10;0.10;;;20.50;70.40;;;;;;4207693;28;21571;-47
2021/07/30 04:35:53;;;;;;;0.00;0.00;;;20.50;70.40;;;;;;4206834;28;20105;-51
2021/07/30 04:38:15;;;;;;;0.13;0.13;;;20.60;70.60;;;;;;4206014;28;20115;-50
2021/07/30 04:40:38;;;;;;;0.00;0.00;;;20.60;70.60;;;;;;4207417;28;20429;-50
2021/07/30 04:43:02;;;;;;;0.30;0.30;;;20.50;70.40;;;;;;4207482;28;20067;-48
2021/07/30 04:45:23;;;;;;;0.10;0.10;;;20.60;70.50;;;;;;4197953;28;20119;-49
2021/07/30 04:47:46;;;;;;;0.10;0.10;;;20.60;70.50;;;;;;4191501;28;20053;-48
2021/07/30 04:50:09;;;;;;;0.25;0.25;;;20.60;70.60;;;;;;4210631;28;20040;-47
2021/07/30 04:52:31;;;;;;;0.00;0.00;;;20.60;70.60;;;;;;4210765;28;20052;-48
2021/07/30 04:54:53;;;;;;;0.10;0.10;;;20.60;70.60;;;;;;4210130;28;20802;-48
2021/07/30 04:57:15;;;;;;;0.55;0.55;;;20.60;70.60;;;;;;4210586;28;20040;-50
2021/07/30 04:59:38;;;;;;;0.00;0.00;;;20.60;70.60;;;;;;4210475;28;20478;-52
2021/07/30 05:02:01;;;;;;;0.05;0.05;;;20.60;70.50;;;;;;4210351;28;20539;-48
2021/07/30 05:04:23;;;;;;;0.32;0.32;;;20.60;70.50;;;;;;4196246;28;20051;-49
2021/07/30 05:06:45;;;;;;;0.20;0.20;;;20.60;70.50;;;;;;4193120;28;20487;-49
2021/07/30 05:09:07;;;;;;;0.30;0.30;;;20.60;70.60;;;;;;4193662;28;20044;-53
2021/07/30 05:11:29;;;;;;;0.10;0.10;;;20.60;70.60;;;;;;4193819;28;20092;-50
2021/07/30 05:13:51;;;;;;;1.27;0.80;;;20.60;70.60;;;;;;4193479;28;20052;-47
2021/07/30 05:16:15;;;;;;;0.47;0.47;;;20.60;70.70;;;;;;4210377;28;20056;-49
2021/07/30 05:18:37;;;;;;;0.00;0.00;;;20.60;70.80;;;;;;4210276;28;20071;-48
2021/07/30 05:20:59;;;;;;;0.40;0.40;;;20.60;70.80;;;;;;4210033;28;20122;-51
2021/07/30 05:23:22;;;;;;;0.20;0.20;;;20.60;70.80;;;;;;4210029;28;20072;-52
2021/07/30 05:25:52;;;;;;;0.10;0.10;;;20.60;70.80;;;;;;4209965;28;20538;-50
2021/07/30 05:28:15;;;;;;;0.20;0.20;;;20.60;70.80;;;;;;4210253;28;20051;-53
2021/07/30 05:30:37;;;;;;;0.10;0.10;;;20.60;70.80;;;;;;4209988;28;20063;-48
2021/07/30 05:33:00;;;;;;;0.00;0.00;;;20.60;70.70;;;;;;4209953;28;20040;-54
2021/07/30 05:35:22;;;;;;;1.00;0.85;;;20.70;71.30;;;;;;4204669;28;20072;-49
2021/07/30 05:37:44;;;;;;;0.13;0.13;;;20.70;71.10;;;;;;4209981;28;20051;-50
2021/07/30 05:40:08;;;;;;;2.67;0.38;;;20.80;70.80;;;;;;4206531;28;20048;-48
2021/07/30 05:42:30;;;;;;;0.73;0.73;;;20.80;70.60;;;;;;4209725;28;20061;-52
2021/07/30 05:44:53;;;;;;;0.00;0.00;;;20.80;70.40;;;;;;4209890;28;20078;-52
2021/07/30 05:47:14;;;;;;;0.75;0.70;;;20.80;70.10;;;;;;4209740;28;20040;-49
2021/07/30 05:49:38;;;;;;;0.05;0.05;;;20.80;70.00;;;;;;4208486;28;20048;-53
2021/07/30 05:52:00;;;;;;;0.20;0.20;;;20.80;69.80;;;;;;4208586;28;20048;-48
2021/07/30 05:54:22;;;;;;;0.00;0.00;;;20.80;70.60;;;;;;4208706;28;20121;-53
2021/07/30 05:56:44;;;;;;;0.00;0.00;;;20.80;69.60;;;;;;4209499;28;20154;-52
2021/07/30 05:59:07;;;;;;;0.35;0.35;;;20.80;69.60;;;;;;4207395;28;20052;-53
2021/07/30 06:01:29;;;;;;;0.00;0.00;;;20.80;69.60;;;;;;4208654;28;20048;-48
2021/07/30 06:03:51;;;;;;;0.20;0.20;;;20.80;69.50;;;;;;4209495;28;20048;-51
2021/07/30 06:06:15;;;;;;;0.52;0.52;;;20.80;69.40;;;;;;4194021;28;20139;-53
2021/07/30 06:08:37;;;;;;;0.45;0.45;;;20.80;69.40;;;;;;4192542;28;20040;-48
2021/07/30 06:10:59;;;;;;;0.10;0.10;;;20.80;69.20;;;;;;4192702;28;20114;-52
2021/07/30 06:13:21;;;;;;;0.30;0.30;;;20.80;69.00;;;;;;4194652;28;20055;-53
2021/07/30 06:15:43;;;;;;;0.20;0.20;;;20.80;69.00;;;;;;4208809;28;20048;-54
2021/07/30 06:18:05;;;;;;;0.10;0.10;;;20.80;68.90;;;;;;4208492;28;20456;-51
2021/07/30 06:20:27;;;;;;;0.40;0.40;;;20.80;68.80;;;;;;4208791;28;20051;-54
2021/07/30 06:22:50;;;;;;;0.10;0.10;;;20.80;68.80;;;;;;4209135;28;20055;-53
2021/07/30 06:25:14;;;;;;;0.20;0.20;;;20.80;68.80;;;;;;4208651;28;20044;-53
2021/07/30 06:27:36;;;;;;;0.22;0.22;;;20.80;68.80;;;;;;4200157;28;20498;-48
2021/07/30 06:29:58;;;;;;;4.97;1.35;;;20.80;69.60;;;;;;4206580;28;20852;-48
2021/07/30 06:32:20;;;;;;;0.00;0.00;;;20.80;68.70;;;;;;4208855;28;20047;-50
2021/07/30 06:34:42;;;;;;;0.10;0.10;;;20.80;68.70;;;;;;4204299;28;20047;-52
2021/07/30 06:37:05;;;;;;;0.00;0.00;;;20.80;68.80;;;;;;4208035;28;20044;-48
2021/07/30 06:39:28;;;;;;;0.00;0.00;;;20.80;68.80;;;;;;4209508;28;20502;-47
2021/07/30 06:41:50;;;;;;;0.20;0.20;;;20.80;68.80;;;;;;4209439;28;20052;-49
2021/07/30 06:44:12;;;;;;;0.20;0.20;;;20.80;68.80;;;;;;4206681;28;20040;-51
2021/07/30 06:46:34;;;;;;;0.73;0.73;;;20.80;69.70;;;;;;4206933;28;20073;-49
2021/07/30 06:48:57;;;;;;;0.15;0.15;;;20.80;68.90;;;;;;4207393;28;20052;-48
2021/07/30 06:51:18;;;;;;;0.20;0.20;;;20.90;69.00;;;;;;4191862;28;20056;-51
2021/07/30 06:53:41;;;;;;;0.30;0.30;;;20.90;69.00;;;;;;4191816;28;20131;-48
2021/07/30 06:56:11;;;;;;;0.10;0.10;;;20.90;68.90;;;;;;4197165;28;20133;-51
2021/07/30 06:58:37;;;;;;;0.05;0.05;;;20.90;68.80;;;;;;4207879;28;20043;-50
2021/07/30 07:00:58;;;;;;;0.00;0.00;;;21.00;68.70;;;;;;4208240;28;20044;-50
2021/07/30 07:03:21;;;;;;;0.00;0.00;;;21.00;68.60;;;;;;4208440;28;20522;-48
2021/07/30 07:05:43;;;;;;;0.00;0.00;;;21.00;68.60;;;;;;4207758;28;20047;-48
2021/07/30 07:08:06;;;;;;;0.30;0.30;;;21.10;68.60;;;;;;4208440;28;20052;-48
2021/07/30 07:10:28;;;;;;;0.80;0.80;;;21.20;68.60;;;;;;4207703;28;20059;-49
2021/07/30 07:12:51;;;;;;;0.10;0.10;;;21.20;69.30;;;;;;4208329;28;20113;-52
2021/07/30 07:15:13;;;;;;;0.73;0.25;;;21.30;68.20;;;;;;4208067;28;20612;-49
2021/07/30 07:17:35;;;;;;;1.45;1.35;;;21.30;67.80;;;;;;4206412;28;20089;-53
2021/07/30 07:19:58;;;;;;;0.10;0.10;;;21.40;67.50;;;;;;4208050;28;20135;-53
2021/07/30 07:22:20;;;;;;;0.40;0.40;;;21.50;67.40;;;;;;4207858;28;20387;-49
2021/07/30 07:24:42;;;;;;;0.00;0.00;;;21.50;67.10;;;;;;4206759;28;20052;-48
2021/07/30 07:27:05;;;;;;;0.85;0.85;;;21.60;67.10;;;;;;4202873;28;20048;-52
2021/07/30 07:29:28;;;;;;;1.02;0.95;;;21.60;66.80;;;;;;4203479;28;20060;-52
2021/07/30 07:31:50;;;;;;;0.00;0.00;;;21.70;66.80;;;;;;4207720;28;20052;-50
2021/07/30 07:34:12;;;;;;;0.28;0.28;;;21.70;66.80;;;;;;4207490;28;20046;-50
2021/07/30 07:36:34;;;;;;;0.43;0.43;;;21.70;67.10;;;;;;4207910;28;20061;-49
2021/07/30 07:38:57;;;;;;;0.00;0.00;;;21.70;67.30;;;;;;4207474;28;20130;-52
2021/07/30 07:41:20;;;;;;;0.30;0.30;;;21.70;67.20;;;;;;4206966;28;20633;-51
2021/07/30 07:43:42;;;;;;;0.55;0.55;;;21.70;67.10;;;;;;4208085;28;20534;-49
2021/07/30 07:46:06;;;;;;;0.00;0.00;;;21.80;68.00;;;;;;4194567;28;20407;-51
2021/07/30 07:48:28;;;;;;;0.30;0.30;;;21.70;66.80;;;;;;4190716;28;20044;-50
2021/07/30 07:50:50;;;;;;;0.35;0.35;;;21.70;66.90;;;;;;4191184;28;20133;-51
2021/07/30 07:53:14;;;;;;;0.00;0.00;;;21.80;67.00;;;;;;4195095;28;20071;-54
2021/07/30 07:55:36;;;;;;;0.00;0.00;;;21.70;67.00;;;;;;4206926;28;20044;-50
2021/07/30 07:57:58;;;;;;;0.10;0.10;;;21.80;67.10;;;;;;4205545;28;20055;-51
2021/07/30 08:00:21;;;;;;;0.03;0.03;;;21.80;67.10;;;;;;4206626;28;20486;-51
2021/07/30 08:02:45;;;;;;;27.70;2.05;;;21.80;67.20;;;;;;4206663;28;20490;-49
2021/07/30 08:05:08;;;;;;;0.00;0.00;;;21.80;67.20;;;;;;4206207;28;20052;-47
2021/07/30 08:07:30;;;;;;;1.33;1.13;;;21.80;67.20;;;;;;4206536;28;20056;-49
2021/07/30 08:09:52;;;;;;;1.48;1.45;;;21.80;67.20;;;;;;4205273;28;20060;-49
2021/07/30 08:12:14;;;;;;;0.00;0.00;;;21.80;67.20;;;;;;4207410;28;20161;-49
2021/07/30 08:14:38;;;;;;;0.10;0.10;;;21.80;67.20;;;;;;4207151;28;20056;-50
2021/07/30 08:17:00;;;;;;;0.03;0.03;;;21.80;67.10;;;;;;4207200;28;20105;-47
2021/07/30 08:19:23;;;;;;;0.17;0.17;;;21.80;67.10;;;;;;4207414;28;20483;-47
2021/07/30 08:21:46;;;;;;;0.00;0.00;;;21.80;67.10;;;;;;4207135;28;20558;-52
2021/07/30 08:24:08;;;;;;;2.72;1.15;;;21.80;67.10;;;;;;4210336;28;20052;-49
2021/07/30 08:26:30;;;;;;;0.00;0.00;;;21.80;67.10;;;;;;4210912;28;20130;-52
2021/07/30 08:28:53;;;;;;;0.03;0.03;;;21.90;67.10;;;;;;4206071;28;20483;-49
2021/07/30 08:31:23;;;;;;;0.00;0.00;;;21.90;67.10;;;;;;4209330;28;20500;-50
2021/07/30 08:33:45;;;;;;;1.55;0.90;;;21.90;67.10;;;;;;4210437;28;20060;-52
2021/07/30 08:36:09;;;;;;;0.55;0.55;;;21.90;67.10;;;;;;4193997;28;20060;-51
2021/07/30 08:38:31;;;;;;;0.00;0.00;;;21.90;67.00;;;;;;4194406;28;20131;-54
2021/07/30 08:40:54;;;;;;;1.35;1.25;;;21.90;66.90;;;;;;4205370;28;20065;-50
2021/07/30 08:43:16;;;;;;;0.00;0.00;;;21.90;66.80;;;;;;4210133;28;20044;-53
2021/07/30 08:45:38;;;;;;;0.00;0.00;;;21.90;66.80;;;;;;4210510;28;20486;-50
2021/07/30 08:48:02;;;;;;;0.65;0.65;;;21.90;66.80;;;;;;4210456;28;20063;-51
2021/07/30 08:50:24;;;;;;;0.00;0.00;;;21.90;66.80;;;;;;4208754;28;20051;-49
2021/07/30 08:52:55;;;;;;;0.10;0.10;;;21.90;66.80;;;;;;4210239;28;20055;-50
2021/07/30 08:55:17;;;;;;;0.00;0.00;;;21.90;66.70;;;;;;4209572;28;20067;-53
2021/07/30 08:57:41;;;;;;;1.05;0.95;;;21.90;66.60;;;;;;4210433;28;20059;-47
2021/07/30 09:00:12;;;;;;;0.98;0.90;;;21.90;66.80;;;;;;4210505;28;20056;-49
2021/07/30 09:02:34;;;;;;;0.00;0.00;;;22.00;67.00;;;;;;4202155;28;20056;-51
2021/07/30 09:04:57;;;;;;;0.45;0.45;;;22.00;67.00;;;;;;4192583;28;20163;-51
2021/07/30 09:07:18;;;;;;;0.00;0.00;;;22.10;66.90;;;;;;4193591;28;20040;-50
2021/07/30 09:09:52;;;;;;;0.45;0.20;;;22.10;66.90;;;;;;4192938;28;20507;-50
2021/07/30 09:12:21;;;;;;;0.03;0.03;;;22.10;66.60;;;;;;4192816;28;20100;-50
2021/07/30 09:14:44;;;;;;;15.43;1.08;;;22.10;66.60;;;;;;4193893;28;20074;-49
2021/07/30 09:17:07;;;;;;;0.08;0.08;;;22.20;66.50;;;;;;4193513;28;20490;-49
2021/07/30 09:19:28;;;;;;;1.25;1.25;;;22.20;66.50;;;;;;4193635;28;20121;-52
2021/07/30 09:22:03;;;;;;;0.38;0.38;;;22.30;66.50;;;;;;4193008;28;20456;-49
2021/07/30 09:24:25;;;;;;;0.52;0.52;;;22.30;66.40;;;;;;4201184;28;20059;-47
2021/07/30 09:26:50;;;;;;;0.00;0.00;;;22.30;66.30;;;;;;4210345;28;20044;-49
2021/07/30 09:29:14;;;;;;;0.30;0.30;;;22.30;66.40;;;;;;4210015;28;20075;-49
2021/07/30 09:31:39;;;;;;;0.00;0.00;;;22.30;66.30;;;;;;4210249;28;20485;-48
2021/07/30 09:34:14;;;;;;;0.20;0.20;;;22.30;66.20;;;;;;4209503;28;20055;-50
2021/07/30 09:36:42;;;;;;;0.00;0.00;;;22.30;66.20;;;;;;4209551;28;20055;-49
2021/07/30 09:39:10;;;;;;;0.30;0.30;;;22.30;66.00;;;;;;4209799;28;20055;-49
2021/07/30 09:41:33;;;;;;;0.38;0.38;;;22.30;66.90;;;;;;4209711;28;20101;-48
2021/07/30 09:44:05;;;;;;;0.55;0.30;;;22.30;65.90;;;;;;4209646;28;20048;-48
2021/07/30 09:46:27;;;;;;;0.30;0.30;;;22.40;66.00;;;;;;4209374;28;20044;-50
2021/07/30 09:48:51;;;;;;;0.57;0.30;;;22.40;65.90;;;;;;4209928;28;20044;-49
2021/07/30 09:51:14;;;;;;;0.45;0.45;;;22.40;65.90;;;;;;4209678;28;20055;-54
2021/07/30 09:53:36;;;;;;;0.10;0.10;;;22.40;66.00;;;;;;4209861;28;20498;-53
2021/07/30 09:55:58;;;;;;;0.00;0.00;;;22.40;66.00;;;;;;4209129;28;20056;-50
2021/07/30 09:58:21;;;;;;;0.00;0.00;;;22.30;66.00;;;;;;4209835;28;20048;-47
2021/07/30 10:00:45;;;;;;;0.00;0.00;;;22.40;65.90;;;;;;4209511;28;20040;-48
2021/07/30 10:03:10;;;;;;;0.00;0.00;;;22.40;65.80;;;;;;4209685;28;20047;-48
2021/07/30 10:05:34;;;;;;;0.08;0.08;;;22.50;66.50;;;;;;4209693;28;20490;-51
2021/07/30 10:07:59;;;;;;;0.45;0.45;;;22.50;65.50;;;;;;4208942;28;20052;-49
2021/07/30 10:10:23;;;;;;;0.15;0.15;;;22.50;65.50;;;;;;4209676;28;20125;-48
2021/07/30 10:12:48;;;;;;;1.15;1.15;;;22.50;65.30;;;;;;4209388;28;20050;-49
2021/07/30 10:15:13;;;;;;;0.38;0.32;;;22.50;65.20;;;;;;4209419;28;20539;-46
2021/07/30 10:17:38;;;;;;;0.00;0.00;;;22.60;65.30;;;;;;4209084;28;20140;-48
2021/07/30 10:20:02;;;;;;;0.00;0.00;;;22.60;65.10;;;;;;4208982;28;20044;-49
2021/07/30 10:22:25;;;;;;;0.00;0.00;;;22.60;65.20;;;;;;4208367;28;20044;-51
2021/07/30 10:24:51;;;;;;;0.00;0.00;;;22.60;65.10;;;;;;4209033;28;20502;-48
2021/07/30 10:27:15;;;;;;;0.40;0.40;;;22.60;65.10;;;;;;4208895;28;20130;-49
2021/07/30 10:30:05;;;;;;;0.10;0.10;;;22.60;65.10;;;;;;4209032;28;20055;-50
2021/07/30 10:34:57;;;;;;;0.10;0.10;;;22.60;64.80;;;;;;4240514;27;20391;-51
2021/07/30 10:37:35;;;;;;;0.00;0.00;;;22.60;65.60;;;;;;4239143;27;20273;-51
2021/07/30 10:40:13;;;;;;;0.10;0.10;;;22.60;64.70;;;;;;4239205;27;20047;-51
2021/07/30 10:42:35;;;;;;;0.52;0.52;;;22.60;64.60;;;;;;4222520;27;20044;-49
2021/07/30 10:45:17;;;;;;;5.30;0.88;;;22.60;64.50;;;;;;4222817;27;20058;-52
2021/07/30 10:47:40;;;;;;;0.00;0.00;;;22.60;64.60;;;;;;4236281;27;20108;-53
2021/07/30 10:50:04;;;;;;;0.03;0.03;;;22.60;64.60;;;;;;4239423;27;20062;-50
2021/07/30 10:52:30;;;;;;;0.40;0.40;;;22.60;64.60;;;;;;4239517;27;20043;-52
2021/07/30 10:54:53;;;;;;;0.00;0.00;;;22.60;64.60;;;;;;4239407;27;20051;-54
2021/07/30 10:57:55;;;;;;;0.03;0.03;;;22.60;64.50;;;;;;4239438;27;20130;-49
2021/07/30 11:00:18;;;;;;;0.10;0.10;;;22.70;64.50;;;;;;4238513;27;20909;-51
2021/07/30 11:03:04;;;;;;;2.40;0.45;;;22.70;64.50;;;;;;4239699;27;20055;-50
2021/07/30 11:05:29;;;;;;;0.00;0.00;;;22.70;64.50;;;;;;4238864;27;20074;-51
2021/07/30 11:08:00;;;;;;;0.00;0.00;;;22.70;64.50;;;;;;4239240;27;20136;-48
2021/07/30 11:10:22;;;;;;;0.10;0.10;;;22.70;64.60;;;;;;4238922;27;20057;-54
2021/07/30 11:12:44;;;;;;;0.13;0.13;;;22.70;64.60;;;;;;4239122;27;20179;-50
2021/07/30 11:15:08;;;;;;;0.57;0.57;;;22.70;64.50;;;;;;4238924;27;20050;-51
2021/07/30 11:17:35;;;;;;;0.28;0.28;;;22.80;64.60;;;;;;4238754;27;20541;-54
2021/07/30 11:20:03;;;;;;;0.10;0.10;;;22.70;64.40;;;;;;4238547;27;20062;-53
2021/07/30 11:22:26;;;;;;;0.00;0.00;;;22.80;64.40;;;;;;4238764;27;20050;-51
2021/07/30 11:24:50;;;;;;;0.00;0.00;;;22.80;64.40;;;;;;4238893;27;20120;-52
2021/07/30 11:27:14;;;;;;;0.22;0.22;;;22.80;64.40;;;;;;4239209;27;20043;-54
2021/07/30 11:29:37;;;;;;;0.00;0.00;;;22.80;64.40;;;;;;4238413;27;20051;-50
2021/07/30 11:32:00;;;;;;;0.17;0.17;;;22.80;64.30;;;;;;4237380;27;20191;-50
2021/07/30 11:34:27;;;;;;;0.00;0.00;;;22.80;64.40;;;;;;4237766;27;20549;-50
2021/07/30 11:36:50;;;;;;;0.00;0.00;;;22.90;64.30;;;;;;4238979;27;20467;-51
2021/07/30 11:39:14;;;;;;;2.28;2.08;;;22.90;64.30;;;;;;4238858;27;20058;-52
2021/07/30 11:41:46;;;;;;;0.20;0.20;;;22.90;64.30;;;;;;4238211;27;20061;-50
2021/07/30 11:44:08;;;;;;;0.00;0.00;;;22.90;64.30;;;;;;4238308;27;20104;-50
2021/07/30 11:46:32;;;;;;;0.00;0.00;;;22.90;64.20;;;;;;4226941;27;20516;-52
2021/07/30 11:48:55;;;;;;;0.00;0.00;;;22.90;64.10;;;;;;4227331;27;20241;-51
2021/07/30 11:51:19;;;;;;;0.00;0.00;;;22.90;64.00;;;;;;4227276;28;20047;-50
2021/07/30 11:53:41;;;;;;;0.00;0.00;;;22.90;64.00;;;;;;4227020;28;20128;-51
2021/07/30 11:56:05;;;;;;;0.00;0.00;;;23.00;64.00;;;;;;4227264;27;20059;-52
2021/07/30 11:58:26;;;;;;;0.30;0.30;;;23.00;63.90;;;;;;4226914;27;20482;-52
2021/07/30 12:00:50;;;;;;;0.00;0.00;;;23.00;63.80;;;;;;4226364;27;20051;-50
2021/07/30 12:03:21;;;;;;;0.30;0.30;;;23.00;63.80;;;;;;4226993;27;20055;-50
2021/07/30 12:05:44;;;;;;;0.10;0.10;;;23.00;63.80;;;;;;4226450;27;20086;-52
2021/07/30 12:08:08;;;;;;;0.00;0.00;;;23.00;63.70;;;;;;4226462;27;20046;-51
2021/07/30 12:10:35;;;;;;;0.00;0.00;;;23.00;63.80;;;;;;4227115;28;20572;-52
2021/07/30 12:13:00;;;;;;;0.15;0.15;;;23.00;63.70;;;;;;4227188;27;25084;-49
2021/07/30 12:15:26;;;;;;;0.00;0.00;;;23.00;63.80;;;;;;4226455;27;20405;-49
2021/07/30 12:17:48;;;;;;;0.03;0.03;;;23.00;63.70;;;;;;4226757;28;20179;-48
2021/07/30 12:20:13;;;;;;;0.00;0.00;;;23.00;63.80;;;;;;4216635;28;20475;-53
2021/07/30 12:22:41;;;;;;;0.15;0.15;;;23.00;63.90;;;;;;4226497;27;20056;-51
2021/07/30 12:25:04;;;;;;;0.15;0.15;;;22.90;63.80;;;;;;4226322;27;20409;-48
2021/07/30 12:27:27;;;;;;;0.10;0.10;;;23.00;63.90;;;;;;4226644;27;20476;-50
2021/07/30 12:29:51;;;;;;;0.08;0.08;;;23.00;64.00;;;;;;4224146;27;20055;-49
2021/07/30 12:32:16;;;;;;;0.03;0.03;;;23.00;64.00;;;;;;4226597;27;20090;-47